createdAt,value
2023-04-25T00:02:04.868Z,7.57
2023-04-25T00:04:34.255Z,5.27
2023-04-25T00:07:03.658Z,6.03
2023-04-25T00:09:31.358Z,5.70
2023-04-25T00:11:58.827Z,6.80
2023-04-25T00:14:26.265Z,5.00
2023-04-25T00:16:54.764Z,5.77
2023-04-25T00:19:22.216Z,6.13
2023-04-25T00:21:50.006Z,5.27
2023-04-25T00:24:18.879Z,5.33
2023-04-25T00:26:46.337Z,4.63
2023-04-25T00:29:13.770Z,3.40
2023-04-25T00:31:41.328Z,3.90
2023-04-25T00:34:09.198Z,5.63
2023-04-25T00:36:37.178Z,3.70
2023-04-25T00:39:05.527Z,3.17
2023-04-25T00:41:34.732Z,4.93
2023-04-25T00:44:02.833Z,4.30
2023-04-25T00:46:30.621Z,4.93
2023-04-25T00:48:58.109Z,5.30
2023-04-25T00:51:26.540Z,4.27
2023-04-25T00:53:54.217Z,5.10
2023-04-25T00:56:22.207Z,4.03
2023-04-25T00:58:51.862Z,6.90
2023-04-25T01:01:19.634Z,8.63
2023-04-25T01:03:48.486Z,5.97
2023-04-25T01:06:16.073Z,5.20
2023-04-25T01:08:43.683Z,5.63
2023-04-25T01:11:11.170Z,6.03
2023-04-25T01:13:38.619Z,6.10
2023-04-25T01:16:07.935Z,4.07
2023-04-25T01:18:35.503Z,5.43
2023-04-25T01:21:10.870Z,4.10
2023-04-25T01:23:38.525Z,3.87
2023-04-25T01:26:06.317Z,4.50
2023-04-25T01:28:35.402Z,5.27
2023-04-25T01:31:03.416Z,5.63
2023-04-25T01:33:31.146Z,8.10
2023-04-25T01:35:58.616Z,4.60
2023-04-25T01:38:27.424Z,4.70
2023-04-25T01:40:55.757Z,5.17
2023-04-25T01:43:23.628Z,5.37
2023-04-25T01:45:52.370Z,5.40
2023-04-25T01:48:20.031Z,6.10
2023-04-25T01:50:47.730Z,5.93
2023-04-25T01:53:16.221Z,5.37
2023-04-25T01:55:45.166Z,6.37
2023-04-25T01:58:13.867Z,5.97
2023-04-25T02:00:41.874Z,5.63
2023-04-25T02:03:10.095Z,6.13
2023-04-25T02:05:38.434Z,5.73
2023-04-25T02:08:07.353Z,6.23
2023-04-25T02:10:34.904Z,6.70
2023-04-25T02:13:03.933Z,5.40
2023-04-25T02:15:31.443Z,5.30
2023-04-25T02:18:00.973Z,9.60
2023-04-25T02:20:29.526Z,6.60
2023-04-25T02:22:56.992Z,5.90
2023-04-25T02:25:24.864Z,7.07
2023-04-25T02:27:52.475Z,6.60
2023-04-25T02:30:21.356Z,5.63
2023-04-25T02:32:48.933Z,5.77
2023-04-25T02:35:16.691Z,6.23
2023-04-25T02:37:44.278Z,6.43
2023-04-25T02:40:12.225Z,6.23
2023-04-25T02:42:39.674Z,6.90
2023-04-25T02:45:07.915Z,5.20
2023-04-25T02:47:36.757Z,6.47
2023-04-25T02:50:04.849Z,6.03
2023-04-25T02:52:32.368Z,7.53
2023-04-25T02:54:59.845Z,10.30
2023-04-25T02:57:27.339Z,7.23
2023-04-25T02:59:54.774Z,11.00
2023-04-25T03:02:22.286Z,10.77
2023-04-25T03:04:51.168Z,11.80
2023-04-25T03:07:18.632Z,11.30
2023-04-25T03:09:46.090Z,7.77
2023-04-25T03:12:13.547Z,7.90
2023-04-25T03:14:41.015Z,7.73
2023-04-25T03:17:08.489Z,11.77
2023-04-25T03:19:35.910Z,8.47
2023-04-25T03:22:04.737Z,9.23
2023-04-25T03:24:32.251Z,7.60
2023-04-25T03:26:59.706Z,10.17
2023-04-25T03:29:28.577Z,6.13
2023-04-25T03:31:56.138Z,8.03
2023-04-25T03:34:24.872Z,13.57
2023-04-25T03:36:52.410Z,11.43
2023-04-25T03:39:21.209Z,8.80
2023-04-25T03:41:48.693Z,6.83
2023-04-25T03:44:16.341Z,8.53
2023-04-25T03:46:43.810Z,7.33
2023-04-25T03:49:11.290Z,8.47
2023-04-25T03:51:38.730Z,7.40
2023-04-25T03:54:06.246Z,10.60
2023-04-25T03:56:35.066Z,7.60
2023-04-25T03:59:02.518Z,11.80
2023-04-25T04:01:30.183Z,11.10
2023-04-25T04:03:57.955Z,8.47
2023-04-25T04:06:26.427Z,9.37
2023-04-25T04:08:53.930Z,7.53
2023-04-25T04:11:21.475Z,7.50
2023-04-25T04:13:50.487Z,9.60
2023-04-25T04:16:18.169Z,15.23
2023-04-25T04:18:46.687Z,10.43
2023-04-25T04:21:14.161Z,11.63
2023-04-25T04:23:41.767Z,10.27
2023-04-25T04:26:09.528Z,8.23
2023-04-25T04:28:37.063Z,11.17
2023-04-25T04:31:05.942Z,9.77
2023-04-25T04:33:33.477Z,14.20
2023-04-25T04:36:01.814Z,8.37
2023-04-25T04:38:29.370Z,9.90
2023-04-25T04:40:56.926Z,10.80
2023-04-25T04:43:25.082Z,10.00
2023-04-25T04:45:53.231Z,8.80
2023-04-25T04:48:22.224Z,11.70
2023-04-25T04:50:49.691Z,10.00
2023-04-25T04:53:17.146Z,11.80
2023-04-25T04:55:44.653Z,7.63
2023-04-25T04:58:12.148Z,9.90
2023-04-25T05:00:39.589Z,9.53
2023-04-25T05:03:07.474Z,11.20
2023-04-25T05:05:36.418Z,8.70
2023-04-25T05:08:03.905Z,10.17
2023-04-25T05:10:31.371Z,8.17
2023-04-25T05:12:58.827Z,12.97
2023-04-25T05:15:26.457Z,7.30
2023-04-25T05:17:54.064Z,6.87
2023-04-25T05:20:21.584Z,6.57
2023-04-25T05:22:50.379Z,10.03
2023-04-25T05:25:18.047Z,9.13
2023-04-25T05:27:45.550Z,10.97
2023-04-25T05:30:13.413Z,7.40
2023-04-25T05:32:41.414Z,7.50
2023-04-25T05:35:09.915Z,12.13
2023-04-25T05:37:37.514Z,10.83
2023-04-25T05:40:08.480Z,11.03
2023-04-25T05:42:36.008Z,7.57
2023-04-25T05:45:05.391Z,7.57
2023-04-25T05:47:32.873Z,11.13
2023-04-25T05:50:00.317Z,6.00
2023-04-25T05:52:27.820Z,6.83
2023-04-25T05:54:55.334Z,6.30
2023-04-25T05:57:27.125Z,8.13
2023-04-25T05:59:54.823Z,6.17
2023-04-25T06:02:22.805Z,6.67
2023-04-25T06:04:52.172Z,5.53
2023-04-25T06:07:20.082Z,6.83
2023-04-25T06:09:47.904Z,11.20
2023-04-25T06:12:15.459Z,7.37
2023-04-25T06:14:44.294Z,7.50
2023-04-25T06:17:11.735Z,7.17
2023-04-25T06:19:39.208Z,6.47
2023-04-25T06:22:08.154Z,4.63
2023-04-25T06:24:35.672Z,7.73
2023-04-25T06:27:03.595Z,9.80
2023-04-25T06:29:31.038Z,5.30
2023-04-25T06:31:59.822Z,4.87
2023-04-25T06:34:27.272Z,6.13
2023-04-25T06:36:54.792Z,5.87
2023-04-25T06:39:24.163Z,6.13
2023-04-25T06:41:51.667Z,4.77
2023-04-25T06:44:19.106Z,5.70
2023-04-25T06:46:46.779Z,6.70
2023-04-25T06:49:15.600Z,6.10
2023-04-25T06:51:43.215Z,5.03
2023-04-25T06:54:10.705Z,7.23
2023-04-25T06:56:38.193Z,5.93
2023-04-25T06:59:05.651Z,4.90
2023-04-25T07:01:33.088Z,3.83
2023-04-25T07:04:00.727Z,4.33
2023-04-25T07:06:29.906Z,4.67
2023-04-25T07:08:57.357Z,3.43
2023-04-25T07:11:24.921Z,4.20
2023-04-25T07:13:52.402Z,5.87
2023-04-25T07:16:19.876Z,8.33
2023-04-25T07:18:47.327Z,5.33
2023-04-25T07:21:14.762Z,4.23
2023-04-25T07:23:43.603Z,6.33
2023-04-25T07:26:11.066Z,8.00
2023-04-25T07:28:38.562Z,4.70
2023-04-25T07:31:06.098Z,7.33
2023-04-25T07:33:33.555Z,5.73
2023-04-25T07:36:01.149Z,4.30
2023-04-25T07:38:28.781Z,4.23
2023-04-25T07:40:57.599Z,4.93
2023-04-25T07:43:25.265Z,3.80
2023-04-25T07:45:52.786Z,3.43
2023-04-25T07:48:20.756Z,3.67
2023-04-25T07:50:48.315Z,4.10
2023-04-25T07:53:16.715Z,3.93
2023-04-25T07:55:44.162Z,3.77
2023-04-25T07:58:13.657Z,6.30
2023-04-25T08:00:42.500Z,2.90
2023-04-25T08:03:11.796Z,4.37
2023-04-25T08:05:39.574Z,6.03
2023-04-25T08:08:07.718Z,8.20
2023-04-25T08:10:35.211Z,3.77
2023-04-25T08:13:03.387Z,5.10
2023-04-25T08:15:32.405Z,3.87
2023-04-25T08:18:00.484Z,3.77
2023-04-25T08:20:28.017Z,2.77
2023-04-25T08:22:55.532Z,3.30
2023-04-25T08:25:22.982Z,2.70
2023-04-25T08:27:50.447Z,2.80
2023-04-25T08:30:17.889Z,5.30
2023-04-25T08:32:46.734Z,5.10
2023-04-25T08:35:14.197Z,4.60
2023-04-25T08:37:42.311Z,3.23
2023-04-25T08:40:14.063Z,2.50
2023-04-25T08:42:43.070Z,3.10
2023-04-25T08:45:11.305Z,2.17
2023-04-25T08:47:40.584Z,4.60
2023-04-25T08:50:09.840Z,4.47
2023-04-25T08:52:39.430Z,3.43
2023-04-25T08:55:09.332Z,7.00
2023-04-25T08:57:37.290Z,3.30
2023-04-25T09:00:06.791Z,7.30
2023-04-25T09:02:34.573Z,2.90
2023-04-25T09:05:02.217Z,5.23
2023-04-25T09:07:31.048Z,5.23
2023-04-25T09:10:00.620Z,3.60
2023-04-25T09:12:29.010Z,6.80
2023-04-25T09:15:05.204Z,4.80
2023-04-25T09:17:32.748Z,5.47
2023-04-25T09:20:08.270Z,4.30
2023-04-25T09:22:38.347Z,3.83
2023-04-25T09:25:10.142Z,9.80
2023-04-25T09:27:37.726Z,6.50
2023-04-25T09:30:06.184Z,4.17
2023-04-25T09:32:33.753Z,5.40
2023-04-25T09:35:01.545Z,4.50
2023-04-25T09:37:30.564Z,8.87
2023-04-25T09:40:03.567Z,6.10
2023-04-25T09:42:32.724Z,5.13
2023-04-25T09:45:02.747Z,5.53
2023-04-25T09:47:30.372Z,3.77
2023-04-25T09:49:57.912Z,3.80
2023-04-25T09:52:26.768Z,4.67
2023-04-25T09:54:54.680Z,5.60
2023-04-25T09:57:24.644Z,8.53
2023-04-25T09:59:53.950Z,5.50
2023-04-25T10:02:25.993Z,4.70
2023-04-25T10:04:55.996Z,5.30
2023-04-25T10:07:26.782Z,5.10
2023-04-25T10:09:57.170Z,3.90
2023-04-25T10:12:25.971Z,5.00
2023-04-25T10:14:54.738Z,4.43
2023-04-25T10:17:22.895Z,5.83
2023-04-25T10:19:51.104Z,4.40
2023-04-25T10:22:20.767Z,3.50
2023-04-25T10:24:48.531Z,4.70
2023-04-25T10:27:16.437Z,4.60
2023-04-25T10:29:45.380Z,4.40
2023-04-25T10:32:12.846Z,5.33
2023-04-25T10:34:41.932Z,5.50
2023-04-25T10:37:12.602Z,6.00
2023-04-25T10:39:41.236Z,3.83
2023-04-25T10:42:09.601Z,4.37
2023-04-25T10:44:39.537Z,5.67
2023-04-25T10:47:09.331Z,3.37
2023-04-25T10:49:38.369Z,6.43
2023-04-25T10:52:14.903Z,3.53
2023-04-25T10:54:44.012Z,3.37
2023-04-25T10:57:30.601Z,6.17
2023-04-25T11:00:01.805Z,6.40
2023-04-25T11:02:31.705Z,6.73
2023-04-25T11:04:59.266Z,5.43
2023-04-25T11:07:33.995Z,5.40
2023-04-25T11:10:03.923Z,5.17
2023-04-25T11:12:32.116Z,6.10
2023-04-25T11:15:03.777Z,3.07
2023-04-25T11:17:32.736Z,4.53
2023-04-25T11:20:00.280Z,5.43
2023-04-25T11:22:28.958Z,3.40
2023-04-25T11:24:56.464Z,4.27
2023-04-25T11:27:25.670Z,3.30
2023-04-25T11:29:53.116Z,5.57
2023-04-25T11:32:23.283Z,4.73
2023-04-25T11:34:54.490Z,4.27
2023-04-25T11:37:22.054Z,9.20
2023-04-25T11:39:49.917Z,8.90
2023-04-25T11:42:17.624Z,7.30
2023-04-25T11:44:45.504Z,7.90
2023-04-25T11:47:13.013Z,4.40
2023-04-25T11:49:40.695Z,9.70
2023-04-25T11:52:09.672Z,4.73
2023-04-25T11:54:38.048Z,5.27
2023-04-25T11:57:05.878Z,5.43
2023-04-25T11:59:33.398Z,4.73
2023-04-25T12:02:10.582Z,3.47
2023-04-25T12:04:39.297Z,3.13
2023-04-25T12:07:06.935Z,3.67
2023-04-25T12:09:35.799Z,6.87
2023-04-25T12:12:04.622Z,4.97
2023-04-25T12:14:33.489Z,3.10
2023-04-25T12:17:01.872Z,4.07
2023-04-25T12:19:34.823Z,3.70
2023-04-25T12:22:03.916Z,6.73
2023-04-25T12:24:31.905Z,2.40
2023-04-25T12:27:03.827Z,4.10
2023-04-25T12:29:41.978Z,4.00
2023-04-25T12:32:16.613Z,3.53
2023-04-25T12:34:44.238Z,4.03
2023-04-25T12:37:12.301Z,6.90
2023-04-25T12:39:40.085Z,6.20
2023-04-25T12:42:12.388Z,5.90
2023-04-25T12:44:39.932Z,3.70
2023-04-25T12:47:07.629Z,4.83
2023-04-25T12:49:35.211Z,4.30
2023-04-25T12:52:02.759Z,7.83
2023-04-25T12:54:30.713Z,5.33
2023-04-25T12:56:58.420Z,4.97
2023-04-25T12:59:27.708Z,6.27
2023-04-25T13:01:55.230Z,4.17
2023-04-25T13:04:22.918Z,5.00
2023-04-25T13:06:50.515Z,4.60
2023-04-25T13:09:17.963Z,3.63
2023-04-25T13:11:46.037Z,6.90
2023-04-25T13:14:13.564Z,3.67
2023-04-25T13:16:42.686Z,4.13
2023-04-25T13:19:12.343Z,8.40
2023-04-25T13:21:40.152Z,4.40
2023-04-25T13:24:08.244Z,2.97
2023-04-25T13:26:35.762Z,6.83
2023-04-25T13:29:04.527Z,11.07
2023-04-25T13:31:33.125Z,3.17
2023-04-25T13:34:01.963Z,5.33
2023-04-25T13:36:29.859Z,4.37
2023-04-25T13:38:57.303Z,4.07
2023-04-25T13:41:24.746Z,4.93
2023-04-25T13:43:53.189Z,5.27
2023-04-25T13:46:40.800Z,7.20
2023-04-25T13:49:13.126Z,9.63
2023-04-25T13:51:40.883Z,6.63
2023-04-25T13:54:08.530Z,3.50
2023-04-25T13:56:36.236Z,3.07
2023-04-25T13:59:03.818Z,6.30
2023-04-25T14:01:32.046Z,3.90
2023-04-25T14:03:59.625Z,2.40
2023-04-25T14:06:29.256Z,4.90
2023-04-25T14:08:57.319Z,3.83
2023-04-25T14:11:24.773Z,3.87
2023-04-25T14:13:52.604Z,7.70
2023-04-25T14:16:20.557Z,7.67
2023-04-25T14:18:48.051Z,5.30
2023-04-25T14:21:15.610Z,2.90
2023-04-25T14:23:44.391Z,3.50
2023-04-25T14:26:13.506Z,3.70
2023-04-25T14:28:41.164Z,5.80
2023-04-25T14:31:08.716Z,4.07
2023-04-25T14:33:36.300Z,7.23
2023-04-25T14:36:04.099Z,2.23
2023-04-25T14:38:31.579Z,5.43
2023-04-25T14:41:00.635Z,3.00
2023-04-25T14:43:28.130Z,3.00
2023-04-25T14:45:58.243Z,4.53
2023-04-25T14:48:26.380Z,3.77
2023-04-25T14:50:53.924Z,4.07
2023-04-25T14:53:21.447Z,4.10
2023-04-25T14:55:49.680Z,8.93
2023-04-25T14:58:18.576Z,4.80
2023-04-25T15:00:46.437Z,4.23
2023-04-25T15:03:14.503Z,2.90
2023-04-25T15:05:42.555Z,2.70
2023-04-25T15:08:11.262Z,3.00
2023-04-25T15:10:38.943Z,6.37
2023-04-25T15:13:06.508Z,3.83
2023-04-25T15:15:35.639Z,4.43
2023-04-25T15:18:03.133Z,5.83
2023-04-25T15:20:30.615Z,3.63
2023-04-25T15:22:58.442Z,4.20
2023-04-25T15:25:26.268Z,2.40
2023-04-25T15:27:54.438Z,4.70
2023-04-25T15:30:22.055Z,2.53
2023-04-25T15:32:51.113Z,3.77
2023-04-25T15:35:18.600Z,5.80
2023-04-25T15:37:46.200Z,5.20
2023-04-25T15:40:17.496Z,4.07
2023-04-25T15:42:47.742Z,3.90
2023-04-25T15:45:17.575Z,5.17
2023-04-25T15:47:45.879Z,2.17
2023-04-25T15:50:15.899Z,2.90
2023-04-25T15:52:43.820Z,2.53
2023-04-25T15:55:12.794Z,3.10
2023-04-25T15:57:41.864Z,4.43
2023-04-25T16:00:13.003Z,3.00
2023-04-25T16:02:41.483Z,4.93
2023-04-25T16:05:11.097Z,3.20
2023-04-25T16:07:40.855Z,3.77
2023-04-25T16:10:09.446Z,2.57
2023-04-25T16:12:37.444Z,3.10
2023-04-25T16:15:05.282Z,6.23
2023-04-25T16:17:33.306Z,3.63
2023-04-25T16:20:01.817Z,4.37
2023-04-25T16:22:29.424Z,7.87
2023-04-25T16:24:58.209Z,8.70
2023-04-25T16:27:25.710Z,2.30
2023-04-25T16:29:53.154Z,4.50
2023-04-25T16:32:20.712Z,3.13
2023-04-25T16:34:48.160Z,8.57
2023-04-25T16:37:15.615Z,4.00
2023-04-25T16:39:43.088Z,2.33
2023-04-25T16:42:11.921Z,3.20
2023-04-25T16:44:39.389Z,4.67
2023-04-25T16:47:06.896Z,3.47
2023-04-25T16:49:34.518Z,4.33
2023-04-25T16:52:02.031Z,5.70
2023-04-25T16:54:29.468Z,5.03
2023-04-25T16:56:56.902Z,8.60
2023-04-25T16:59:25.675Z,6.93
2023-04-25T17:01:53.235Z,3.00
2023-04-25T17:04:20.860Z,4.47
2023-04-25T17:06:48.572Z,5.40
2023-04-25T17:09:16.056Z,2.40
2023-04-25T17:11:43.654Z,6.60
2023-04-25T17:14:11.101Z,2.70
2023-04-25T17:16:40.562Z,2.20
2023-04-25T17:19:08.506Z,2.77
2023-04-25T17:21:36.009Z,3.23
2023-04-25T17:24:06.002Z,3.40
2023-04-25T17:26:33.511Z,4.47
2023-04-25T17:29:00.960Z,3.83
2023-04-25T17:31:28.574Z,3.87
2023-04-25T17:33:57.590Z,3.60
2023-04-25T17:36:25.171Z,2.80
2023-04-25T17:38:52.908Z,3.03
2023-04-25T17:41:20.930Z,2.90
2023-04-25T17:43:48.408Z,3.20
2023-04-25T17:46:15.951Z,6.87
2023-04-25T17:48:43.438Z,3.73
2023-04-25T17:51:12.250Z,3.70
2023-04-25T17:53:39.671Z,2.50
2023-04-25T17:56:19.391Z,2.93
2023-04-25T17:58:54.116Z,4.00
2023-04-25T18:01:22.070Z,3.80
2023-04-25T18:03:50.310Z,2.13
2023-04-25T18:06:19.482Z,2.63
2023-04-25T18:08:47.283Z,4.20
2023-04-25T18:11:15.082Z,3.73
2023-04-25T18:13:43.111Z,6.40
2023-04-25T18:16:10.756Z,4.03
2023-04-25T18:18:38.197Z,4.40
2023-04-25T18:21:07.727Z,4.83
2023-04-25T18:23:37.738Z,2.33
2023-04-25T18:26:06.028Z,3.23
2023-04-25T18:28:34.240Z,3.70
2023-04-25T18:31:02.002Z,2.20
2023-04-25T18:33:29.505Z,3.03
2023-04-25T18:35:59.815Z,4.10
2023-04-25T18:41:14.975Z,4.70
2023-04-25T18:43:46.873Z,2.67
2023-04-25T18:46:14.360Z,4.23
2023-04-25T18:48:42.834Z,3.30
2023-04-25T18:51:10.549Z,6.97
2023-04-25T18:53:38.286Z,5.17
2023-04-25T18:56:07.452Z,3.10
2023-04-25T18:58:34.935Z,3.33
2023-04-25T19:01:03.656Z,3.63
2023-04-25T19:03:31.550Z,2.00
2023-04-25T19:05:59.237Z,1.93
2023-04-25T19:08:27.476Z,2.83
2023-04-25T19:10:55.397Z,2.00
2023-04-25T19:13:24.390Z,4.60
2023-04-25T19:15:51.858Z,4.00
2023-04-25T19:18:19.460Z,5.40
2023-04-25T19:20:47.175Z,1.50
2023-04-25T19:23:14.670Z,2.40
2023-04-25T19:25:42.601Z,6.83
2023-04-25T19:28:12.765Z,3.13
2023-04-25T19:30:41.734Z,2.80
2023-04-25T19:33:09.351Z,1.80
2023-04-25T19:35:36.942Z,5.50
2023-04-25T19:38:04.564Z,5.20
2023-04-25T19:40:32.033Z,3.30
2023-04-25T19:42:59.578Z,2.70
2023-04-25T19:45:27.106Z,2.60
2023-04-25T19:47:56.031Z,2.10
2023-04-25T19:50:23.700Z,2.60
2023-04-25T19:52:51.966Z,4.43
2023-04-25T19:55:19.526Z,2.30
2023-04-25T19:57:47.474Z,2.90
2023-04-25T20:00:19.223Z,2.80
2023-04-25T20:02:47.799Z,3.93
2023-04-25T20:05:17.776Z,2.13
2023-04-25T20:07:45.478Z,3.20
2023-04-25T20:10:13.992Z,3.00
2023-04-25T20:12:41.544Z,3.40
2023-04-25T20:15:09.715Z,2.83
2023-04-25T20:17:37.232Z,3.00
2023-04-25T20:20:06.352Z,3.20
2023-04-25T20:22:38.595Z,3.83
2023-04-25T20:25:08.199Z,3.50
2023-04-25T20:27:37.742Z,5.83
2023-04-25T20:30:07.922Z,4.70
2023-04-25T20:32:35.849Z,3.50
2023-04-25T20:35:03.964Z,3.70
2023-04-25T20:37:32.461Z,2.90
2023-04-25T20:40:01.767Z,2.93
2023-04-25T20:42:29.258Z,3.10
2023-04-25T20:44:56.805Z,2.00
2023-04-25T20:47:24.617Z,6.90
2023-04-25T20:49:52.238Z,3.10
2023-04-25T20:52:19.744Z,7.23
2023-04-25T20:54:50.150Z,2.83
2023-04-25T20:57:18.980Z,4.03
2023-04-25T20:59:47.138Z,2.23
2023-04-25T21:02:15.907Z,3.60
2023-04-25T21:04:44.008Z,2.93
2023-04-25T21:07:12.985Z,3.90
2023-04-25T21:09:40.677Z,4.30
2023-04-25T21:12:08.561Z,4.50
2023-04-25T21:14:37.341Z,4.63
2023-04-25T21:17:05.114Z,4.20
2023-04-25T21:19:33.023Z,3.20
2023-04-25T21:22:01.676Z,3.17
2023-04-25T21:24:31.021Z,2.83
2023-04-25T21:26:58.494Z,5.40
2023-04-25T21:29:26.013Z,3.33
2023-04-25T21:31:54.848Z,2.00
2023-04-25T21:34:22.622Z,3.70
2023-04-25T21:36:50.084Z,3.23
2023-04-25T21:39:17.563Z,6.20
2023-04-25T21:41:45.033Z,4.23
2023-04-25T21:44:14.399Z,2.40
2023-04-25T21:46:42.003Z,2.00
2023-04-25T21:49:11.443Z,2.70
2023-04-25T21:51:38.961Z,1.57
2023-04-25T21:54:09.640Z,3.03
2023-04-25T21:56:37.138Z,5.17
2023-04-25T21:59:04.620Z,2.63
2023-04-25T22:01:32.195Z,5.30
2023-04-25T22:04:00.002Z,1.87
2023-04-25T22:06:29.521Z,1.77
2023-04-25T22:08:56.980Z,2.70
2023-04-25T22:11:26.390Z,3.20
2023-04-25T22:13:54.411Z,3.03
2023-04-25T22:16:21.966Z,1.87
2023-04-25T22:18:51.234Z,5.43
2023-04-25T22:21:18.956Z,2.50
2023-04-25T22:23:47.752Z,2.47
2023-04-25T22:26:15.188Z,4.87
2023-04-25T22:28:42.624Z,3.07
2023-04-25T22:31:10.556Z,2.97
2023-04-25T22:33:38.096Z,3.00
2023-04-25T22:36:05.844Z,2.30
2023-04-25T22:38:33.308Z,1.83
2023-04-25T22:41:02.145Z,4.93
2023-04-25T22:43:29.834Z,4.07
2023-04-25T22:45:58.677Z,2.30
2023-04-25T22:48:26.221Z,1.80
2023-04-25T22:51:02.510Z,3.40
2023-04-25T22:53:31.959Z,4.20
2023-04-25T22:55:59.418Z,4.03
2023-04-25T22:58:28.613Z,2.90
2023-04-25T23:00:56.101Z,2.33
2023-04-25T23:03:23.684Z,4.80
2023-04-25T23:05:51.471Z,2.63
2023-04-25T23:08:19.042Z,2.83
2023-04-25T23:10:46.590Z,2.97
2023-04-25T23:13:14.066Z,1.93
2023-04-25T23:15:42.848Z,5.03
2023-04-25T23:18:10.355Z,3.63
2023-04-25T23:20:37.905Z,3.53
2023-04-25T23:23:05.924Z,1.90
2023-04-25T23:25:33.498Z,3.37
2023-04-25T23:28:00.938Z,2.37
2023-04-25T23:30:28.379Z,5.63
2023-04-25T23:32:57.174Z,3.60
2023-04-25T23:35:24.705Z,3.30
2023-04-25T23:37:52.173Z,2.10
2023-04-25T23:40:19.631Z,3.83
2023-04-25T23:42:47.432Z,3.87
2023-04-25T23:45:16.442Z,4.00
2023-04-25T23:47:44.139Z,5.10
2023-04-25T23:50:13.396Z,1.97
2023-04-25T23:52:40.998Z,3.33
2023-04-25T23:55:09.741Z,4.77
2023-04-25T23:57:37.311Z,7.13
